sensor_id;sensor_type;location;lat;lon;timestamp;P1;durP1;ratioP1;P2;durP2;ratioP2
14052;SDS011;7101;51.600;7.310;2022-11-20T00:01:05;18.47;;;13.43;;
14052;SDS011;7101;51.600;7.310;2022-11-20T00:03:35;19.57;;;13.40;;
14052;SDS011;7101;51.600;7.310;2022-11-20T00:06:04;21.50;;;13.50;;
14052;SDS011;7101;51.600;7.310;2022-11-20T00:08:34;17.70;;;13.40;;
14052;SDS011;7101;51.600;7.310;2022-11-20T00:11:02;17.90;;;13.00;;
14052;SDS011;7101;51.600;7.310;2022-11-20T00:13:30;18.73;;;12.67;;
14052;SDS011;7101;51.600;7.310;2022-11-20T00:15:57;19.50;;;13.33;;
14052;SDS011;7101;51.600;7.310;2022-11-20T00:18:24;20.93;;;12.80;;
14052;SDS011;7101;51.600;7.310;2022-11-20T00:20:51;21.07;;;13.80;;
14052;SDS011;7101;51.600;7.310;2022-11-20T00:23:19;19.53;;;13.50;;
14052;SDS011;7101;51.600;7.310;2022-11-20T00:25:46;19.57;;;13.17;;
14052;SDS011;7101;51.600;7.310;2022-11-20T00:28:14;18.77;;;12.77;;
14052;SDS011;7101;51.600;7.310;2022-11-20T00:30:43;19.23;;;13.00;;
14052;SDS011;7101;51.600;7.310;2022-11-20T00:33:10;19.10;;;12.33;;
14052;SDS011;7101;51.600;7.310;2022-11-20T00:35:38;17.40;;;13.07;;
14052;SDS011;7101;51.600;7.310;2022-11-20T00:38:05;19.87;;;13.17;;
14052;SDS011;7101;51.600;7.310;2022-11-20T00:40:33;19.07;;;13.87;;
14052;SDS011;7101;51.600;7.310;2022-11-20T00:43:00;16.97;;;12.83;;
14052;SDS011;7101;51.600;7.310;2022-11-20T00:45:28;16.47;;;12.63;;
14052;SDS011;7101;51.600;7.310;2022-11-20T00:47:54;17.37;;;12.83;;
14052;SDS011;7101;51.600;7.310;2022-11-20T00:50:22;18.57;;;12.67;;
14052;SDS011;7101;51.600;7.310;2022-11-20T00:52:49;18.00;;;12.93;;
14052;SDS011;7101;51.600;7.310;2022-11-20T00:55:16;18.80;;;13.03;;
14052;SDS011;7101;51.600;7.310;2022-11-20T00:57:44;17.23;;;13.00;;
14052;SDS011;7101;51.600;7.310;2022-11-20T01:00:11;17.40;;;12.57;;
14052;SDS011;7101;51.600;7.310;2022-11-20T01:02:38;19.37;;;13.57;;
14052;SDS011;7101;51.600;7.310;2022-11-20T01:05:06;17.97;;;13.47;;
14052;SDS011;7101;51.600;7.310;2022-11-20T01:07:34;16.60;;;12.57;;
14052;SDS011;7101;51.600;7.310;2022-11-20T01:10:01;17.40;;;12.93;;
14052;SDS011;7101;51.600;7.310;2022-11-20T01:12:28;19.80;;;13.80;;
14052;SDS011;7101;51.600;7.310;2022-11-20T01:14:56;22.10;;;13.20;;
14052;SDS011;7101;51.600;7.310;2022-11-20T01:17:23;17.40;;;12.67;;
14052;SDS011;7101;51.600;7.310;2022-11-20T01:19:50;20.30;;;13.53;;
14052;SDS011;7101;51.600;7.310;2022-11-20T01:22:17;18.33;;;13.17;;
14052;SDS011;7101;51.600;7.310;2022-11-20T01:24:45;18.63;;;13.00;;
14052;SDS011;7101;51.600;7.310;2022-11-20T01:27:11;16.53;;;12.37;;
14052;SDS011;7101;51.600;7.310;2022-11-20T01:29:38;21.33;;;14.07;;
14052;SDS011;7101;51.600;7.310;2022-11-20T01:32:06;19.63;;;13.17;;
14052;SDS011;7101;51.600;7.310;2022-11-20T01:34:34;19.80;;;13.33;;
14052;SDS011;7101;51.600;7.310;2022-11-20T01:37:01;17.27;;;13.40;;
14052;SDS011;7101;51.600;7.310;2022-11-20T01:39:30;19.90;;;14.30;;
14052;SDS011;7101;51.600;7.310;2022-11-20T01:41:57;18.67;;;13.37;;
14052;SDS011;7101;51.600;7.310;2022-11-20T01:44:52;20.23;;;14.33;;
14052;SDS011;7101;51.600;7.310;2022-11-20T01:47:24;17.77;;;13.13;;
14052;SDS011;7101;51.600;7.310;2022-11-20T01:49:56;18.50;;;13.17;;
14052;SDS011;7101;51.600;7.310;2022-11-20T01:52:28;17.73;;;13.13;;
14052;SDS011;7101;51.600;7.310;2022-11-20T01:54:59;18.60;;;13.23;;
14052;SDS011;7101;51.600;7.310;2022-11-20T01:57:30;19.60;;;12.80;;
14052;SDS011;7101;51.600;7.310;2022-11-20T02:00:00;19.83;;;14.10;;
14052;SDS011;7101;51.600;7.310;2022-11-20T02:02:32;17.90;;;13.37;;
14052;SDS011;7101;51.600;7.310;2022-11-20T02:05:00;20.20;;;13.80;;
14052;SDS011;7101;51.600;7.310;2022-11-20T02:07:35;17.97;;;13.00;;
14052;SDS011;7101;51.600;7.310;2022-11-20T02:10:04;18.37;;;13.13;;
14052;SDS011;7101;51.600;7.310;2022-11-20T02:12:31;20.10;;;13.23;;
14052;SDS011;7101;51.600;7.310;2022-11-20T02:15:27;18.57;;;13.13;;
14052;SDS011;7101;51.600;7.310;2022-11-20T02:17:56;20.90;;;13.70;;
14052;SDS011;7101;51.600;7.310;2022-11-20T02:20:23;20.40;;;13.80;;
14052;SDS011;7101;51.600;7.310;2022-11-20T02:22:53;19.57;;;13.60;;
14052;SDS011;7101;51.600;7.310;2022-11-20T02:25:24;19.73;;;14.13;;
14052;SDS011;7101;51.600;7.310;2022-11-20T02:27:54;17.60;;;13.10;;
14052;SDS011;7101;51.600;7.310;2022-11-20T02:30:22;20.57;;;13.83;;
14052;SDS011;7101;51.600;7.310;2022-11-20T02:32:48;20.73;;;14.83;;
14052;SDS011;7101;51.600;7.310;2022-11-20T02:38:07;19.53;;;13.77;;
14052;SDS011;7101;51.600;7.310;2022-11-20T02:40:36;19.20;;;13.20;;
14052;SDS011;7101;51.600;7.310;2022-11-20T02:43:03;20.30;;;14.33;;
14052;SDS011;7101;51.600;7.310;2022-11-20T02:45:30;22.53;;;13.97;;
14052;SDS011;7101;51.600;7.310;2022-11-20T02:47:57;19.77;;;13.43;;
14052;SDS011;7101;51.600;7.310;2022-11-20T02:50:24;20.67;;;14.67;;
14052;SDS011;7101;51.600;7.310;2022-11-20T02:52:53;19.37;;;13.80;;
14052;SDS011;7101;51.600;7.310;2022-11-20T02:55:20;18.70;;;14.27;;
14052;SDS011;7101;51.600;7.310;2022-11-20T02:57:49;20.80;;;13.97;;
14052;SDS011;7101;51.600;7.310;2022-11-20T03:00:16;20.50;;;13.13;;
14052;SDS011;7101;51.600;7.310;2022-11-20T03:02:44;20.87;;;13.27;;
14052;SDS011;7101;51.600;7.310;2022-11-20T03:05:11;17.83;;;13.40;;
14052;SDS011;7101;51.600;7.310;2022-11-20T03:07:38;19.37;;;13.13;;
14052;SDS011;7101;51.600;7.310;2022-11-20T03:10:05;20.07;;;13.77;;
14052;SDS011;7101;51.600;7.310;2022-11-20T03:12:32;23.93;;;14.43;;
14052;SDS011;7101;51.600;7.310;2022-11-20T03:15:00;19.93;;;13.63;;
14052;SDS011;7101;51.600;7.310;2022-11-20T03:17:27;22.27;;;14.83;;
14052;SDS011;7101;51.600;7.310;2022-11-20T03:19:54;24.13;;;13.90;;
14052;SDS011;7101;51.600;7.310;2022-11-20T03:22:21;20.40;;;14.13;;
14052;SDS011;7101;51.600;7.310;2022-11-20T03:24:48;19.23;;;13.97;;
14052;SDS011;7101;51.600;7.310;2022-11-20T03:27:15;20.87;;;13.73;;
14052;SDS011;7101;51.600;7.310;2022-11-20T03:29:42;20.80;;;14.20;;
14052;SDS011;7101;51.600;7.310;2022-11-20T03:32:10;20.37;;;15.13;;
14052;SDS011;7101;51.600;7.310;2022-11-20T03:34:37;18.43;;;13.07;;
14052;SDS011;7101;51.600;7.310;2022-11-20T03:37:04;18.67;;;13.70;;
14052;SDS011;7101;51.600;7.310;2022-11-20T03:39:31;20.67;;;13.87;;
14052;SDS011;7101;51.600;7.310;2022-11-20T03:41:58;22.27;;;13.30;;
14052;SDS011;7101;51.600;7.310;2022-11-20T03:44:25;19.03;;;13.87;;
14052;SDS011;7101;51.600;7.310;2022-11-20T03:46:52;20.10;;;14.13;;
14052;SDS011;7101;51.600;7.310;2022-11-20T03:49:20;20.67;;;13.67;;
14052;SDS011;7101;51.600;7.310;2022-11-20T03:51:47;22.50;;;14.17;;
14052;SDS011;7101;51.600;7.310;2022-11-20T03:54:13;18.27;;;13.40;;
14052;SDS011;7101;51.600;7.310;2022-11-20T03:56:40;17.93;;;13.23;;
14052;SDS011;7101;51.600;7.310;2022-11-20T03:59:09;21.57;;;13.90;;
14052;SDS011;7101;51.600;7.310;2022-11-20T04:01:37;18.83;;;13.17;;
14052;SDS011;7101;51.600;7.310;2022-11-20T04:04:06;19.67;;;14.07;;
14052;SDS011;7101;51.600;7.310;2022-11-20T04:06:35;20.97;;;14.37;;
14052;SDS011;7101;51.600;7.310;2022-11-20T04:09:03;21.70;;;14.50;;
14052;SDS011;7101;51.600;7.310;2022-11-20T04:11:31;20.20;;;13.60;;
14052;SDS011;7101;51.600;7.310;2022-11-20T04:13:59;21.40;;;14.13;;
14052;SDS011;7101;51.600;7.310;2022-11-20T04:16:28;20.90;;;14.47;;
14052;SDS011;7101;51.600;7.310;2022-11-20T04:18:56;23.13;;;14.50;;
14052;SDS011;7101;51.600;7.310;2022-11-20T04:21:25;20.20;;;14.20;;
14052;SDS011;7101;51.600;7.310;2022-11-20T04:23:54;21.77;;;15.17;;
14052;SDS011;7101;51.600;7.310;2022-11-20T04:26:23;24.00;;;14.63;;
14052;SDS011;7101;51.600;7.310;2022-11-20T04:28:52;22.43;;;14.53;;
14052;SDS011;7101;51.600;7.310;2022-11-20T04:31:21;21.27;;;14.80;;
14052;SDS011;7101;51.600;7.310;2022-11-20T04:33:49;22.17;;;14.33;;
14052;SDS011;7101;51.600;7.310;2022-11-20T04:36:20;21.30;;;14.60;;
14052;SDS011;7101;51.600;7.310;2022-11-20T04:38:50;19.63;;;14.20;;
14052;SDS011;7101;51.600;7.310;2022-11-20T04:41:19;23.77;;;14.30;;
14052;SDS011;7101;51.600;7.310;2022-11-20T04:43:49;21.57;;;14.83;;
14052;SDS011;7101;51.600;7.310;2022-11-20T04:46:17;23.87;;;14.00;;
14052;SDS011;7101;51.600;7.310;2022-11-20T04:48:45;19.53;;;13.67;;
14052;SDS011;7101;51.600;7.310;2022-11-20T04:51:14;21.47;;;14.37;;
14052;SDS011;7101;51.600;7.310;2022-11-20T04:53:42;17.93;;;12.90;;
14052;SDS011;7101;51.600;7.310;2022-11-20T04:56:11;20.87;;;14.03;;
14052;SDS011;7101;51.600;7.310;2022-11-20T04:58:42;23.63;;;14.90;;
14052;SDS011;7101;51.600;7.310;2022-11-20T05:01:09;20.30;;;14.47;;
14052;SDS011;7101;51.600;7.310;2022-11-20T05:03:39;19.23;;;13.67;;
14052;SDS011;7101;51.600;7.310;2022-11-20T05:06:06;22.87;;;15.07;;
14052;SDS011;7101;51.600;7.310;2022-11-20T05:08:34;20.87;;;14.50;;
14052;SDS011;7101;51.600;7.310;2022-11-20T05:11:01;21.43;;;14.47;;
14052;SDS011;7101;51.600;7.310;2022-11-20T05:13:29;19.97;;;13.40;;
14052;SDS011;7101;51.600;7.310;2022-11-20T05:16:02;23.10;;;14.97;;
14052;SDS011;7101;51.600;7.310;2022-11-20T05:18:29;20.83;;;14.70;;
14052;SDS011;7101;51.600;7.310;2022-11-20T05:20:56;19.47;;;14.10;;
14052;SDS011;7101;51.600;7.310;2022-11-20T05:23:24;20.67;;;14.57;;
14052;SDS011;7101;51.600;7.310;2022-11-20T05:25:52;20.67;;;14.43;;
14052;SDS011;7101;51.600;7.310;2022-11-20T05:28:19;22.00;;;15.23;;
14052;SDS011;7101;51.600;7.310;2022-11-20T05:30:46;20.23;;;14.73;;
14052;SDS011;7101;51.600;7.310;2022-11-20T05:33:15;19.53;;;13.93;;
14052;SDS011;7101;51.600;7.310;2022-11-20T05:35:42;22.73;;;15.13;;
14052;SDS011;7101;51.600;7.310;2022-11-20T05:38:09;23.23;;;15.47;;
14052;SDS011;7101;51.600;7.310;2022-11-20T05:40:36;20.87;;;14.83;;
14052;SDS011;7101;51.600;7.310;2022-11-20T05:43:03;20.13;;;14.33;;
14052;SDS011;7101;51.600;7.310;2022-11-20T05:45:30;21.60;;;15.00;;
14052;SDS011;7101;51.600;7.310;2022-11-20T05:47:57;19.27;;;14.10;;
14052;SDS011;7101;51.600;7.310;2022-11-20T05:50:26;22.33;;;14.63;;
14052;SDS011;7101;51.600;7.310;2022-11-20T05:52:54;18.80;;;13.33;;
14052;SDS011;7101;51.600;7.310;2022-11-20T05:55:24;22.30;;;14.77;;
14052;SDS011;7101;51.600;7.310;2022-11-20T05:57:51;21.87;;;15.33;;
14052;SDS011;7101;51.600;7.310;2022-11-20T06:00:19;20.67;;;15.27;;
14052;SDS011;7101;51.600;7.310;2022-11-20T06:02:46;18.83;;;14.33;;
14052;SDS011;7101;51.600;7.310;2022-11-20T06:05:13;20.47;;;15.10;;
14052;SDS011;7101;51.600;7.310;2022-11-20T06:07:41;20.10;;;14.50;;
14052;SDS011;7101;51.600;7.310;2022-11-20T06:10:09;20.87;;;15.07;;
14052;SDS011;7101;51.600;7.310;2022-11-20T06:12:36;19.13;;;14.43;;
14052;SDS011;7101;51.600;7.310;2022-11-20T06:15:05;19.57;;;13.93;;
14052;SDS011;7101;51.600;7.310;2022-11-20T06:17:32;19.23;;;13.63;;
14052;SDS011;7101;51.600;7.310;2022-11-20T06:19:59;18.60;;;14.00;;
14052;SDS011;7101;51.600;7.310;2022-11-20T06:22:26;17.50;;;13.63;;
14052;SDS011;7101;51.600;7.310;2022-11-20T06:24:54;20.00;;;14.37;;
14052;SDS011;7101;51.600;7.310;2022-11-20T06:27:20;18.23;;;13.40;;
14052;SDS011;7101;51.600;7.310;2022-11-20T06:29:47;19.93;;;14.90;;
14052;SDS011;7101;51.600;7.310;2022-11-20T06:32:14;19.43;;;14.67;;
14052;SDS011;7101;51.600;7.310;2022-11-20T06:34:42;33.57;;;25.80;;
14052;SDS011;7101;51.600;7.310;2022-11-20T06:37:09;35.90;;;28.07;;
14052;SDS011;7101;51.600;7.310;2022-11-20T06:39:36;38.73;;;30.17;;
14052;SDS011;7101;51.600;7.310;2022-11-20T06:42:04;34.00;;;23.83;;
14052;SDS011;7101;51.600;7.310;2022-11-20T06:44:31;26.57;;;18.90;;
14052;SDS011;7101;51.600;7.310;2022-11-20T06:46:58;29.13;;;20.80;;
14052;SDS011;7101;51.600;7.310;2022-11-20T06:49:25;24.40;;;19.23;;
14052;SDS011;7101;51.600;7.310;2022-11-20T06:51:52;26.43;;;18.23;;
14052;SDS011;7101;51.600;7.310;2022-11-20T06:54:22;20.67;;;16.00;;
14052;SDS011;7101;51.600;7.310;2022-11-20T06:56:49;22.40;;;16.00;;
14052;SDS011;7101;51.600;7.310;2022-11-20T06:59:18;21.67;;;16.17;;
14052;SDS011;7101;51.600;7.310;2022-11-20T07:01:44;20.87;;;15.67;;
14052;SDS011;7101;51.600;7.310;2022-11-20T07:04:11;22.23;;;16.17;;
14052;SDS011;7101;51.600;7.310;2022-11-20T07:06:39;26.93;;;16.97;;
14052;SDS011;7101;51.600;7.310;2022-11-20T07:09:06;25.27;;;17.73;;
14052;SDS011;7101;51.600;7.310;2022-11-20T07:11:32;23.97;;;16.67;;
14052;SDS011;7101;51.600;7.310;2022-11-20T07:13:59;21.83;;;16.90;;
14052;SDS011;7101;51.600;7.310;2022-11-20T07:16:27;20.23;;;15.20;;
14052;SDS011;7101;51.600;7.310;2022-11-20T07:18:54;24.67;;;16.33;;
14052;SDS011;7101;51.600;7.310;2022-11-20T07:21:21;23.23;;;15.90;;
14052;SDS011;7101;51.600;7.310;2022-11-20T07:23:49;21.43;;;15.63;;
14052;SDS011;7101;51.600;7.310;2022-11-20T07:26:16;24.17;;;17.10;;
14052;SDS011;7101;51.600;7.310;2022-11-20T07:28:43;20.97;;;14.73;;
14052;SDS011;7101;51.600;7.310;2022-11-20T07:31:11;21.47;;;14.83;;
14052;SDS011;7101;51.600;7.310;2022-11-20T07:33:39;20.60;;;14.57;;
14052;SDS011;7101;51.600;7.310;2022-11-20T07:36:06;22.07;;;15.50;;
14052;SDS011;7101;51.600;7.310;2022-11-20T07:38:34;24.23;;;16.40;;
14052;SDS011;7101;51.600;7.310;2022-11-20T07:41:01;21.77;;;16.20;;
14052;SDS011;7101;51.600;7.310;2022-11-20T07:43:28;21.27;;;16.13;;
14052;SDS011;7101;51.600;7.310;2022-11-20T07:45:55;21.43;;;15.53;;
14052;SDS011;7101;51.600;7.310;2022-11-20T07:48:22;22.20;;;15.87;;
14052;SDS011;7101;51.600;7.310;2022-11-20T07:50:54;21.10;;;15.33;;
14052;SDS011;7101;51.600;7.310;2022-11-20T07:53:21;25.23;;;16.50;;
14052;SDS011;7101;51.600;7.310;2022-11-20T07:55:48;22.20;;;16.27;;
14052;SDS011;7101;51.600;7.310;2022-11-20T07:58:17;24.50;;;16.80;;
14052;SDS011;7101;51.600;7.310;2022-11-20T08:00:44;22.77;;;15.77;;
14052;SDS011;7101;51.600;7.310;2022-11-20T08:03:12;22.37;;;14.83;;
14052;SDS011;7101;51.600;7.310;2022-11-20T08:05:38;24.93;;;16.60;;
14052;SDS011;7101;51.600;7.310;2022-11-20T08:08:07;23.73;;;16.80;;
14052;SDS011;7101;51.600;7.310;2022-11-20T08:10:33;23.20;;;15.73;;
14052;SDS011;7101;51.600;7.310;2022-11-20T08:13:00;27.17;;;17.60;;
14052;SDS011;7101;51.600;7.310;2022-11-20T08:15:47;25.13;;;18.17;;
14052;SDS011;7101;51.600;7.310;2022-11-20T08:18:16;28.90;;;20.23;;
14052;SDS011;7101;51.600;7.310;2022-11-20T08:20:45;30.63;;;19.50;;
14052;SDS011;7101;51.600;7.310;2022-11-20T08:23:13;33.03;;;22.03;;
14052;SDS011;7101;51.600;7.310;2022-11-20T08:25:40;37.20;;;23.30;;
14052;SDS011;7101;51.600;7.310;2022-11-20T08:28:08;48.97;;;27.63;;
14052;SDS011;7101;51.600;7.310;2022-11-20T08:30:36;42.30;;;26.97;;
14052;SDS011;7101;51.600;7.310;2022-11-20T08:33:04;47.73;;;32.30;;
14052;SDS011;7101;51.600;7.310;2022-11-20T08:35:33;55.80;;;35.10;;
14052;SDS011;7101;51.600;7.310;2022-11-20T08:38:01;48.90;;;32.93;;
14052;SDS011;7101;51.600;7.310;2022-11-20T08:40:30;35.53;;;23.90;;
14052;SDS011;7101;51.600;7.310;2022-11-20T08:42:58;32.87;;;22.83;;
14052;SDS011;7101;51.600;7.310;2022-11-20T08:45:25;32.77;;;23.20;;
14052;SDS011;7101;51.600;7.310;2022-11-20T08:47:52;32.17;;;22.53;;
14052;SDS011;7101;51.600;7.310;2022-11-20T08:50:19;32.87;;;23.17;;
14052;SDS011;7101;51.600;7.310;2022-11-20T08:52:46;33.55;;;23.05;;
14052;SDS011;7101;51.600;7.310;2022-11-20T08:55:13;36.38;;;23.20;;
14052;SDS011;7101;51.600;7.310;2022-11-20T08:57:42;37.95;;;25.45;;
14052;SDS011;7101;51.600;7.310;2022-11-20T09:00:10;36.10;;;24.50;;
14052;SDS011;7101;51.600;7.310;2022-11-20T09:02:37;35.33;;;24.25;;
14052;SDS011;7101;51.600;7.310;2022-11-20T09:05:04;36.33;;;25.60;;
14052;SDS011;7101;51.600;7.310;2022-11-20T09:07:31;38.50;;;26.70;;
14052;SDS011;7101;51.600;7.310;2022-11-20T09:09:58;38.78;;;28.30;;
14052;SDS011;7101;51.600;7.310;2022-11-20T09:12:26;42.33;;;28.80;;
14052;SDS011;7101;51.600;7.310;2022-11-20T09:14:54;38.50;;;28.00;;
14052;SDS011;7101;51.600;7.310;2022-11-20T09:17:21;41.45;;;28.90;;
14052;SDS011;7101;51.600;7.310;2022-11-20T09:19:48;39.97;;;29.00;;
14052;SDS011;7101;51.600;7.310;2022-11-20T09:22:16;38.90;;;26.77;;
14052;SDS011;7101;51.600;7.310;2022-11-20T09:24:43;41.15;;;28.75;;
14052;SDS011;7101;51.600;7.310;2022-11-20T09:27:11;39.97;;;27.13;;
14052;SDS011;7101;51.600;7.310;2022-11-20T09:29:45;40.78;;;27.92;;
14052;SDS011;7101;51.600;7.310;2022-11-20T09:32:14;33.25;;;24.95;;
14052;SDS011;7101;51.600;7.310;2022-11-20T09:34:41;36.08;;;25.30;;
14052;SDS011;7101;51.600;7.310;2022-11-20T09:37:09;37.65;;;26.60;;
14052;SDS011;7101;51.600;7.310;2022-11-20T09:39:36;35.47;;;26.90;;
14052;SDS011;7101;51.600;7.310;2022-11-20T09:42:09;37.33;;;26.23;;
14052;SDS011;7101;51.600;7.310;2022-11-20T09:44:53;37.95;;;26.48;;
14052;SDS011;7101;51.600;7.310;2022-11-20T09:47:37;37.13;;;26.38;;
14052;SDS011;7101;51.600;7.310;2022-11-20T09:50:18;36.03;;;26.00;;
14052;SDS011;7101;51.600;7.310;2022-11-20T09:52:54;41.17;;;29.05;;
14052;SDS011;7101;51.600;7.310;2022-11-20T09:55:30;38.63;;;28.20;;
14052;SDS011;7101;51.600;7.310;2022-11-20T09:57:59;36.13;;;26.88;;
14052;SDS011;7101;51.600;7.310;2022-11-20T10:00:27;39.45;;;27.83;;
14052;SDS011;7101;51.600;7.310;2022-11-20T10:02:58;35.70;;;26.27;;
14052;SDS011;7101;51.600;7.310;2022-11-20T10:05:30;41.42;;;27.88;;
14052;SDS011;7101;51.600;7.310;2022-11-20T10:08:04;41.30;;;27.83;;
14052;SDS011;7101;51.600;7.310;2022-11-20T10:10:41;43.10;;;27.65;;
14052;SDS011;7101;51.600;7.310;2022-11-20T10:13:17;36.80;;;24.08;;
14052;SDS011;7101;51.600;7.310;2022-11-20T10:15:57;37.22;;;26.20;;
14052;SDS011;7101;51.600;7.310;2022-11-20T10:18:39;36.55;;;24.48;;
14052;SDS011;7101;51.600;7.310;2022-11-20T10:21:17;38.08;;;24.98;;
14052;SDS011;7101;51.600;7.310;2022-11-20T10:23:56;32.72;;;23.65;;
14052;SDS011;7101;51.600;7.310;2022-11-20T10:26:48;36.20;;;24.38;;
14052;SDS011;7101;51.600;7.310;2022-11-20T10:29:21;39.30;;;25.33;;
14052;SDS011;7101;51.600;7.310;2022-11-20T10:31:56;42.22;;;27.60;;
14052;SDS011;7101;51.600;7.310;2022-11-20T10:34:31;43.65;;;26.75;;
14052;SDS011;7101;51.600;7.310;2022-11-20T10:37:05;39.38;;;25.35;;
14052;SDS011;7101;51.600;7.310;2022-11-20T10:42:14;46.65;;;26.08;;
14052;SDS011;7101;51.600;7.310;2022-11-20T10:44:47;37.17;;;25.15;;
14052;SDS011;7101;51.600;7.310;2022-11-20T10:47:30;38.17;;;25.35;;
14052;SDS011;7101;51.600;7.310;2022-11-20T10:50:01;29.58;;;20.60;;
14052;SDS011;7101;51.600;7.310;2022-11-20T10:52:32;29.58;;;22.02;;
14052;SDS011;7101;51.600;7.310;2022-11-20T10:55:06;34.05;;;21.60;;
14052;SDS011;7101;51.600;7.310;2022-11-20T10:57:44;28.40;;;20.80;;
14052;SDS011;7101;51.600;7.310;2022-11-20T11:00:20;29.40;;;20.83;;
14052;SDS011;7101;51.600;7.310;2022-11-20T11:02:48;30.50;;;20.55;;
14052;SDS011;7101;51.600;7.310;2022-11-20T11:05:25;25.83;;;19.75;;
14052;SDS011;7101;51.600;7.310;2022-11-20T11:08:01;24.45;;;16.85;;
14052;SDS011;7101;51.600;7.310;2022-11-20T11:10:33;24.08;;;17.00;;
14052;SDS011;7101;51.600;7.310;2022-11-20T11:13:06;22.63;;;16.48;;
14052;SDS011;7101;51.600;7.310;2022-11-20T11:15:38;22.67;;;16.48;;
14052;SDS011;7101;51.600;7.310;2022-11-20T11:18:08;22.70;;;16.27;;
14052;SDS011;7101;51.600;7.310;2022-11-20T11:20:37;22.45;;;14.95;;
14052;SDS011;7101;51.600;7.310;2022-11-20T11:23:10;22.23;;;16.05;;
14052;SDS011;7101;51.600;7.310;2022-11-20T11:25:56;22.02;;;16.17;;
14052;SDS011;7101;51.600;7.310;2022-11-20T11:28:27;22.70;;;16.70;;
14052;SDS011;7101;51.600;7.310;2022-11-20T11:30:56;20.83;;;14.85;;
14052;SDS011;7101;51.600;7.310;2022-11-20T11:33:26;25.73;;;18.83;;
14052;SDS011;7101;51.600;7.310;2022-11-20T11:35:56;20.15;;;14.18;;
14052;SDS011;7101;51.600;7.310;2022-11-20T11:38:28;19.45;;;13.35;;
14052;SDS011;7101;51.600;7.310;2022-11-20T11:40:59;18.48;;;15.02;;
14052;SDS011;7101;51.600;7.310;2022-11-20T11:43:28;19.60;;;14.75;;
14052;SDS011;7101;51.600;7.310;2022-11-20T11:46:23;20.02;;;14.52;;
14052;SDS011;7101;51.600;7.310;2022-11-20T11:48:54;18.30;;;13.80;;
14052;SDS011;7101;51.600;7.310;2022-11-20T11:51:28;16.15;;;13.05;;
14052;SDS011;7101;51.600;7.310;2022-11-20T11:54:00;17.25;;;14.05;;
14052;SDS011;7101;51.600;7.310;2022-11-20T11:56:31;22.23;;;16.00;;
14052;SDS011;7101;51.600;7.310;2022-11-20T11:59:00;24.00;;;16.25;;
14052;SDS011;7101;51.600;7.310;2022-11-20T12:01:34;19.13;;;13.88;;
14052;SDS011;7101;51.600;7.310;2022-11-20T12:04:10;20.33;;;14.38;;
14052;SDS011;7101;51.600;7.310;2022-11-20T12:06:50;18.65;;;12.77;;
14052;SDS011;7101;51.600;7.310;2022-11-20T12:09:34;19.08;;;14.60;;
14052;SDS011;7101;51.600;7.310;2022-11-20T12:12:10;20.10;;;13.77;;
14052;SDS011;7101;51.600;7.310;2022-11-20T12:14:42;20.75;;;14.52;;
14052;SDS011;7101;51.600;7.310;2022-11-20T12:17:12;17.80;;;13.52;;
14052;SDS011;7101;51.600;7.310;2022-11-20T12:19:41;17.25;;;12.73;;
14052;SDS011;7101;51.600;7.310;2022-11-20T12:22:12;20.30;;;14.70;;
14052;SDS011;7101;51.600;7.310;2022-11-20T12:24:51;19.67;;;14.52;;
14052;SDS011;7101;51.600;7.310;2022-11-20T12:27:44;17.98;;;13.95;;
14052;SDS011;7101;51.600;7.310;2022-11-20T12:30:22;18.40;;;14.63;;
14052;SDS011;7101;51.600;7.310;2022-11-20T12:35:58;18.90;;;14.02;;
14052;SDS011;7101;51.600;7.310;2022-11-20T12:38:43;18.77;;;13.95;;
14052;SDS011;7101;51.600;7.310;2022-11-20T12:41:47;17.45;;;14.00;;
14052;SDS011;7101;51.600;7.310;2022-11-20T12:44:52;19.88;;;13.88;;
14052;SDS011;7101;51.600;7.310;2022-11-20T12:47:51;18.15;;;14.60;;
14052;SDS011;7101;51.600;7.310;2022-11-20T12:50:34;19.38;;;14.18;;
14052;SDS011;7101;51.600;7.310;2022-11-20T12:53:11;18.67;;;13.68;;
14052;SDS011;7101;51.600;7.310;2022-11-20T12:55:55;17.95;;;13.55;;
14052;SDS011;7101;51.600;7.310;2022-11-20T12:58:31;19.30;;;13.23;;
14052;SDS011;7101;51.600;7.310;2022-11-20T13:01:08;17.42;;;13.50;;
14052;SDS011;7101;51.600;7.310;2022-11-20T13:04:07;17.33;;;12.75;;
14052;SDS011;7101;51.600;7.310;2022-11-20T13:06:40;17.83;;;13.65;;
14052;SDS011;7101;51.600;7.310;2022-11-20T13:09:08;17.17;;;13.55;;
14052;SDS011;7101;51.600;7.310;2022-11-20T13:11:45;18.83;;;13.68;;
14052;SDS011;7101;51.600;7.310;2022-11-20T13:14:20;18.42;;;14.13;;
14052;SDS011;7101;51.600;7.310;2022-11-20T13:16:57;18.10;;;14.43;;
14052;SDS011;7101;51.600;7.310;2022-11-20T13:19:30;19.63;;;13.80;;
14052;SDS011;7101;51.600;7.310;2022-11-20T13:21:59;18.05;;;14.25;;
14052;SDS011;7101;51.600;7.310;2022-11-20T13:24:27;18.45;;;13.55;;
14052;SDS011;7101;51.600;7.310;2022-11-20T13:27:01;19.17;;;13.63;;
14052;SDS011;7101;51.600;7.310;2022-11-20T13:29:43;17.17;;;13.15;;
14052;SDS011;7101;51.600;7.310;2022-11-20T13:32:13;18.08;;;13.32;;
14052;SDS011;7101;51.600;7.310;2022-11-20T13:34:51;19.08;;;14.80;;
14052;SDS011;7101;51.600;7.310;2022-11-20T13:37:27;19.77;;;14.20;;
14052;SDS011;7101;51.600;7.310;2022-11-20T13:42:54;24.00;;;16.33;;
14052;SDS011;7101;51.600;7.310;2022-11-20T13:45:25;22.55;;;16.13;;
14052;SDS011;7101;51.600;7.310;2022-11-20T13:47:56;23.08;;;16.65;;
14052;SDS011;7101;51.600;7.310;2022-11-20T13:50:28;19.33;;;15.50;;
14052;SDS011;7101;51.600;7.310;2022-11-20T13:53:09;24.20;;;15.80;;
14052;SDS011;7101;51.600;7.310;2022-11-20T13:55:50;24.23;;;16.10;;
14052;SDS011;7101;51.600;7.310;2022-11-20T13:58:26;22.52;;;16.55;;
14052;SDS011;7101;51.600;7.310;2022-11-20T14:01:08;20.88;;;15.65;;
14052;SDS011;7101;51.600;7.310;2022-11-20T14:03:37;23.25;;;16.83;;
14052;SDS011;7101;51.600;7.310;2022-11-20T14:06:10;23.55;;;16.55;;
14052;SDS011;7101;51.600;7.310;2022-11-20T14:08:41;23.33;;;15.98;;
14052;SDS011;7101;51.600;7.310;2022-11-20T14:11:13;20.95;;;15.63;;
14052;SDS011;7101;51.600;7.310;2022-11-20T14:13:52;22.88;;;16.80;;
14052;SDS011;7101;51.600;7.310;2022-11-20T14:16:24;21.38;;;16.35;;
14052;SDS011;7101;51.600;7.310;2022-11-20T14:18:53;21.92;;;16.25;;
14052;SDS011;7101;51.600;7.310;2022-11-20T14:21:22;26.42;;;18.23;;
14052;SDS011;7101;51.600;7.310;2022-11-20T14:24:02;27.13;;;19.05;;
14052;SDS011;7101;51.600;7.310;2022-11-20T14:26:30;23.08;;;17.17;;
14052;SDS011;7101;51.600;7.310;2022-11-20T14:28:59;22.25;;;16.30;;
14052;SDS011;7101;51.600;7.310;2022-11-20T14:31:26;21.52;;;16.85;;
14052;SDS011;7101;51.600;7.310;2022-11-20T14:33:54;21.20;;;16.10;;
14052;SDS011;7101;51.600;7.310;2022-11-20T14:36:22;21.13;;;15.80;;
14052;SDS011;7101;51.600;7.310;2022-11-20T14:38:52;23.58;;;17.13;;
14052;SDS011;7101;51.600;7.310;2022-11-20T14:41:20;21.30;;;15.93;;
14052;SDS011;7101;51.600;7.310;2022-11-20T14:43:50;22.77;;;15.85;;
14052;SDS011;7101;51.600;7.310;2022-11-20T14:46:21;21.80;;;15.82;;
14052;SDS011;7101;51.600;7.310;2022-11-20T14:48:50;23.52;;;16.33;;
14052;SDS011;7101;51.600;7.310;2022-11-20T14:51:23;24.35;;;15.75;;
14052;SDS011;7101;51.600;7.310;2022-11-20T14:53:54;22.98;;;16.60;;
14052;SDS011;7101;51.600;7.310;2022-11-20T14:56:21;22.63;;;16.73;;
14052;SDS011;7101;51.600;7.310;2022-11-20T14:58:55;24.30;;;17.73;;
14052;SDS011;7101;51.600;7.310;2022-11-20T15:01:28;27.05;;;18.90;;
14052;SDS011;7101;51.600;7.310;2022-11-20T15:03:59;20.83;;;15.95;;